createdAt,value
2018-09-13T00:02:15.357Z,18.23
2018-09-13T00:04:44.023Z,18.18
2018-09-13T00:07:12.736Z,18.11
2018-09-13T00:09:41.345Z,18.09
2018-09-13T00:12:10.035Z,18.05
2018-09-13T00:14:38.703Z,18.04
2018-09-13T00:17:07.334Z,18.05
2018-09-13T00:19:35.974Z,18.02
2018-09-13T00:22:04.627Z,18.03
2018-09-13T00:24:33.277Z,18.03
2018-09-13T00:27:01.900Z,18.02
2018-09-13T00:29:30.572Z,17.99
2018-09-13T00:31:59.214Z,17.96
2018-09-13T00:34:27.825Z,17.93
2018-09-13T00:36:56.502Z,17.94
2018-09-13T00:39:25.139Z,17.90
2018-09-13T00:41:53.837Z,17.91
2018-09-13T00:44:22.470Z,17.89
2018-09-13T00:46:51.106Z,17.86
2018-09-13T00:49:19.774Z,17.85
2018-09-13T00:51:48.422Z,17.82
2018-09-13T00:54:17.058Z,17.82
2018-09-13T00:56:45.694Z,17.82
2018-09-13T00:59:14.326Z,17.80
2018-09-13T01:01:43.097Z,17.79
2018-09-13T01:04:11.772Z,17.76
2018-09-13T01:06:40.381Z,17.73
2018-09-13T01:09:10.101Z,17.72
2018-09-13T01:11:38.912Z,17.69
2018-09-13T01:14:07.565Z,17.67
2018-09-13T01:16:36.200Z,17.67
2018-09-13T01:19:05.332Z,17.70
2018-09-13T01:21:33.960Z,17.71
2018-09-13T01:24:02.596Z,17.64
2018-09-13T01:26:31.233Z,17.58
2018-09-13T01:28:59.918Z,17.54
2018-09-13T01:31:28.520Z,17.54
2018-09-13T01:33:57.266Z,17.59
2018-09-13T01:36:25.946Z,17.71
2018-09-13T01:38:54.593Z,17.66
2018-09-13T01:41:23.246Z,17.61
2018-09-13T01:43:52.020Z,17.61
2018-09-13T01:46:20.697Z,17.54
2018-09-13T01:48:49.351Z,17.47
2018-09-13T01:51:17.958Z,17.45
2018-09-13T01:53:46.581Z,17.44
2018-09-13T01:56:15.273Z,17.39
2018-09-13T01:58:43.929Z,17.39
2018-09-13T02:01:12.537Z,17.41
2018-09-13T02:03:41.148Z,17.43
2018-09-13T02:06:09.810Z,17.52
2018-09-13T02:08:38.417Z,17.54
2018-09-13T02:11:07.110Z,17.54
2018-09-13T02:13:35.778Z,17.50
2018-09-13T02:16:04.506Z,17.43
2018-09-13T02:18:33.147Z,17.40
2018-09-13T02:21:01.842Z,17.35
2018-09-13T02:23:30.493Z,17.33
2018-09-13T02:25:59.179Z,17.32
2018-09-13T02:28:27.847Z,17.28
2018-09-13T02:30:56.442Z,17.30
2018-09-13T02:33:25.062Z,17.29
2018-09-13T02:35:53.681Z,17.28
2018-09-13T02:38:22.285Z,17.27
2018-09-13T02:40:50.985Z,17.26
2018-09-13T02:43:19.822Z,17.29
2018-09-13T02:45:48.712Z,17.31
2018-09-13T02:48:17.379Z,17.34
2018-09-13T02:50:46.005Z,17.37
2018-09-13T02:53:14.654Z,17.37
2018-09-13T02:55:43.295Z,17.42
2018-09-13T02:58:11.962Z,17.41
2018-09-13T03:00:40.615Z,17.38
2018-09-13T03:03:09.299Z,17.32
2018-09-13T03:05:38.054Z,17.24
2018-09-13T03:08:06.742Z,17.18
2018-09-13T03:10:35.344Z,17.15
2018-09-13T03:13:04.014Z,17.11
2018-09-13T03:15:32.632Z,17.10
2018-09-13T03:18:01.318Z,17.08
2018-09-13T03:20:30.026Z,17.04
2018-09-13T03:22:58.681Z,17.04
2018-09-13T03:25:27.310Z,17.02
2018-09-13T03:27:55.981Z,16.98
2018-09-13T03:30:24.685Z,16.97
2018-09-13T03:32:53.553Z,16.95
2018-09-13T03:35:22.198Z,16.92
2018-09-13T03:37:50.789Z,16.90
2018-09-13T03:40:19.385Z,16.89
2018-09-13T03:42:47.942Z,16.90
2018-09-13T03:45:16.521Z,16.88
2018-09-13T03:47:45.237Z,16.88
2018-09-13T03:50:13.933Z,16.92
2018-09-13T03:52:42.517Z,16.91
2018-09-13T03:55:11.152Z,16.90
2018-09-13T03:57:39.746Z,16.87
2018-09-13T04:00:08.678Z,16.85
2018-09-13T04:02:37.277Z,16.84
2018-09-13T04:05:05.863Z,16.82
2018-09-13T04:07:34.416Z,16.80
2018-09-13T04:10:03.017Z,16.79
2018-09-13T04:12:31.570Z,16.80
2018-09-13T04:15:00.145Z,16.84
2018-09-13T04:17:28.738Z,16.86
2018-09-13T04:19:57.330Z,16.90
2018-09-13T04:22:25.912Z,16.96
2018-09-13T04:24:54.510Z,16.98
2018-09-13T04:27:23.089Z,16.95
2018-09-13T04:29:51.668Z,16.89
2018-09-13T04:32:20.264Z,16.92
2018-09-13T04:34:48.825Z,16.89
2018-09-13T04:37:17.408Z,16.92
2018-09-13T04:39:46.066Z,16.92
2018-09-13T04:42:14.878Z,16.95
2018-09-13T04:44:43.462Z,16.94
2018-09-13T04:47:12.085Z,16.93
2018-09-13T04:49:40.793Z,17.01
2018-09-13T04:52:09.469Z,17.04
2018-09-13T04:54:38.057Z,17.10
2018-09-13T04:57:06.690Z,17.14
2018-09-13T04:59:35.276Z,17.20
2018-09-13T05:02:03.860Z,17.36
2018-09-13T05:04:32.466Z,17.46
2018-09-13T05:07:01.054Z,17.52
2018-09-13T05:09:29.634Z,17.59
2018-09-13T05:12:09.331Z,17.66
2018-09-13T05:14:37.898Z,17.73
2018-09-13T05:17:06.508Z,17.79
2018-09-13T05:19:35.142Z,17.85
2018-09-13T05:22:03.699Z,17.88
2018-09-13T05:24:32.352Z,17.92
2018-09-13T05:27:00.940Z,17.98
2018-09-13T05:29:29.529Z,18.03
2018-09-13T05:31:58.110Z,18.07
2018-09-13T05:34:26.690Z,18.10
2018-09-13T05:36:55.261Z,18.20
2018-09-13T05:39:23.853Z,18.31
2018-09-13T05:41:52.414Z,18.35
2018-09-13T05:44:21.002Z,18.42
2018-09-13T05:46:49.727Z,18.49
2018-09-13T05:49:18.400Z,18.53
2018-09-13T05:51:47.004Z,18.55
2018-09-13T05:54:15.632Z,18.65
2018-09-13T05:56:44.215Z,18.67
2018-09-13T05:59:12.774Z,18.72
2018-09-13T06:01:41.391Z,18.75
2018-09-13T06:04:10.124Z,18.78
2018-09-13T06:06:38.675Z,18.87
2018-09-13T06:09:08.300Z,18.98
2018-09-13T06:11:37.069Z,19.15
2018-09-13T06:14:05.897Z,19.32
2018-09-13T06:16:34.866Z,19.46
2018-09-13T06:19:03.864Z,19.60
2018-09-13T06:21:32.442Z,19.76
2018-09-13T06:24:01.013Z,19.91
2018-09-13T06:26:29.646Z,20.08
2018-09-13T06:28:58.254Z,20.21
2018-09-13T06:31:27.045Z,20.28
2018-09-13T06:33:55.638Z,20.26
2018-09-13T06:36:24.214Z,20.31
2018-09-13T06:38:52.937Z,20.28
2018-09-13T06:41:21.594Z,20.34
2018-09-13T06:43:50.197Z,20.44
2018-09-13T06:46:18.840Z,20.56
2018-09-13T06:48:47.493Z,20.72
2018-09-13T06:51:16.127Z,20.93
2018-09-13T06:53:44.721Z,21.00
2018-09-13T06:56:13.353Z,21.09
2018-09-13T06:58:41.975Z,21.25
2018-09-13T07:01:10.657Z,21.33
2018-09-13T07:03:39.280Z,21.42
2018-09-13T07:06:08.302Z,21.55
2018-09-13T07:08:36.856Z,21.68
2018-09-13T07:11:05.794Z,21.79
2018-09-13T07:13:34.408Z,21.86
2018-09-13T07:16:02.973Z,21.99
2018-09-13T07:18:31.612Z,22.09
2018-09-13T07:21:00.244Z,22.18
2018-09-13T07:23:28.871Z,22.22
2018-09-13T07:25:57.458Z,22.32
2018-09-13T07:28:26.090Z,22.45
2018-09-13T07:30:54.796Z,22.49
2018-09-13T07:33:23.425Z,22.68
2018-09-13T07:35:52.016Z,22.72
2018-09-13T07:38:20.617Z,22.71
2018-09-13T07:40:49.210Z,22.81
2018-09-13T07:43:17.802Z,22.93
2018-09-13T07:48:13.945Z,23.06
2018-09-13T07:50:42.562Z,23.14
2018-09-13T07:53:11.197Z,23.23
2018-09-13T07:55:39.994Z,23.36
2018-09-13T07:58:08.725Z,23.47
2018-09-13T08:00:37.356Z,23.62
2018-09-13T08:03:05.998Z,23.62
2018-09-13T08:05:34.621Z,23.70
2018-09-13T08:08:03.246Z,23.73
2018-09-13T08:10:31.853Z,23.81
2018-09-13T08:13:00.675Z,23.93
2018-09-13T08:15:29.278Z,24.02
2018-09-13T08:17:57.917Z,24.06
2018-09-13T08:20:26.617Z,24.12
2018-09-13T08:22:55.204Z,24.19
2018-09-13T08:25:24.094Z,24.24
2018-09-13T08:27:52.747Z,24.32
2018-09-13T08:30:21.424Z,24.36
2018-09-13T08:32:50.157Z,24.23
2018-09-13T08:35:18.899Z,24.24
2018-09-13T08:37:47.639Z,24.31
2018-09-13T08:40:16.351Z,24.30
2018-09-13T08:42:45.061Z,24.39
2018-09-13T08:45:13.697Z,24.44
2018-09-13T08:47:42.440Z,24.57
2018-09-13T08:50:11.053Z,24.77
2018-09-13T08:52:39.826Z,24.79
2018-09-13T08:55:13.642Z,24.79
2018-09-13T08:57:42.335Z,24.69
2018-09-13T09:00:12.799Z,24.68
2018-09-13T09:02:41.807Z,24.81
2018-09-13T09:05:10.497Z,24.82
2018-09-13T09:07:39.765Z,24.75
2018-09-13T09:10:08.470Z,24.81
2018-09-13T09:12:37.120Z,24.78
2018-09-13T09:15:05.981Z,24.64
2018-09-13T09:17:34.659Z,24.78
2018-09-13T09:20:03.368Z,24.80
2018-09-13T09:22:32.081Z,24.78
2018-09-13T09:25:00.728Z,24.82
2018-09-13T09:27:29.351Z,24.97
2018-09-13T09:29:58.109Z,25.11
2018-09-13T09:32:27.249Z,25.25
2018-09-13T09:34:55.931Z,25.37
2018-09-13T09:37:24.576Z,25.40
2018-09-13T09:39:53.328Z,25.51
2018-09-13T09:42:21.901Z,25.46
2018-09-13T09:44:50.606Z,25.48
2018-09-13T09:47:19.299Z,25.58
2018-09-13T09:49:48.128Z,25.81
2018-09-13T09:52:16.997Z,25.91
2018-09-13T09:54:45.761Z,25.94
2018-09-13T09:57:14.447Z,25.91
2018-09-13T09:59:43.148Z,25.98
2018-09-13T10:02:16.916Z,26.12
2018-09-13T10:04:46.432Z,26.18
2018-09-13T10:07:15.132Z,26.23
2018-09-13T10:09:43.888Z,26.36
2018-09-13T10:12:13.367Z,26.40
2018-09-13T10:14:42.320Z,26.33
2018-09-13T10:17:16.151Z,26.36
2018-09-13T10:19:50.054Z,26.40
2018-09-13T10:23:26.525Z,26.67
2018-09-13T10:26:00.402Z,26.86
2018-09-13T10:28:34.333Z,27.00
2018-09-13T10:31:08.326Z,27.07
2018-09-13T10:33:42.263Z,27.24
2018-09-13T10:36:16.187Z,27.39
2018-09-13T10:38:50.119Z,27.42
2018-09-13T10:41:24.089Z,27.28
2018-09-13T10:43:57.771Z,27.35
2018-09-13T10:46:27.880Z,27.51
2018-09-13T10:49:18.923Z,27.65
2018-09-13T10:52:58.209Z,27.80
2018-09-13T10:55:27.969Z,27.93
2018-09-13T10:57:56.869Z,27.84
2018-09-13T11:00:25.590Z,27.96
2018-09-13T11:02:54.355Z,27.91
2018-09-13T11:05:23.086Z,28.11
2018-09-13T11:07:51.740Z,28.19
2018-09-13T11:10:20.438Z,28.21
2018-09-13T11:13:53.654Z,28.35
2018-09-13T11:16:22.464Z,28.50
2018-09-13T11:18:51.193Z,28.58
2018-09-13T11:21:19.835Z,28.75
2018-09-13T11:23:48.678Z,28.89
2018-09-13T11:26:17.513Z,29.01
2018-09-13T11:28:46.236Z,28.94
2018-09-13T11:31:15.034Z,28.91
2018-09-13T11:33:43.762Z,29.04
2018-09-13T11:36:12.514Z,29.25
2018-09-13T11:38:41.376Z,29.25
2018-09-13T11:41:10.121Z,29.22
2018-09-13T11:43:38.867Z,29.35
2018-09-13T11:46:07.843Z,29.44
2018-09-13T11:48:36.616Z,29.55
2018-09-13T11:51:05.284Z,29.55
2018-09-13T11:53:34.099Z,29.55
2018-09-13T11:56:03.130Z,29.57
2018-09-13T11:58:31.923Z,29.69
2018-09-13T12:01:00.690Z,29.80
2018-09-13T12:03:29.419Z,29.65
2018-09-13T12:05:58.130Z,29.86
2018-09-13T12:08:27.255Z,29.87
2018-09-13T12:10:56.062Z,30.00
2018-09-13T12:13:24.795Z,30.15
2018-09-13T12:15:54.681Z,30.26
2018-09-13T12:18:23.381Z,30.12
2018-09-13T12:20:52.086Z,30.13
2018-09-13T12:23:20.804Z,30.36
2018-09-13T12:25:49.737Z,30.45
2018-09-13T12:28:18.417Z,30.58
2018-09-13T12:30:47.198Z,30.68
2018-09-13T12:33:15.966Z,30.70
2018-09-13T12:35:44.645Z,30.72
2018-09-13T12:38:13.404Z,30.80
2018-09-13T12:40:42.205Z,30.99
2018-09-13T12:43:10.910Z,31.30
2018-09-13T12:45:39.617Z,31.47
2018-09-13T12:48:08.618Z,31.46
2018-09-13T12:50:37.430Z,31.46
2018-09-13T12:53:06.281Z,31.56
2018-09-13T12:55:40.273Z,31.73
2018-09-13T12:58:08.983Z,31.71
2018-09-13T13:00:37.638Z,31.69
2018-09-13T13:03:06.378Z,32.03
2018-09-13T13:05:35.196Z,32.28
2018-09-13T13:08:03.934Z,32.55
2018-09-13T13:10:32.774Z,32.63
2018-09-13T13:13:01.547Z,32.52
2018-09-13T13:15:30.227Z,32.61
2018-09-13T13:17:58.916Z,32.84
2018-09-13T13:20:27.745Z,32.99
2018-09-13T13:22:56.477Z,33.23
2018-09-13T13:25:25.165Z,33.44
2018-09-13T13:27:53.874Z,33.72
2018-09-13T13:30:23.334Z,33.77
2018-09-13T13:32:52.316Z,33.88
2018-09-13T13:35:20.989Z,34.04
2018-09-13T13:37:49.746Z,33.88
2018-09-13T13:40:18.811Z,34.02
2018-09-13T13:42:47.481Z,33.52
2018-09-13T13:45:16.267Z,33.46
2018-09-13T13:47:45.255Z,33.65
2018-09-13T13:50:13.990Z,33.90
2018-09-13T13:52:43.022Z,34.20
2018-09-13T13:55:11.836Z,34.25
2018-09-13T13:57:40.751Z,34.35
2018-09-13T14:00:09.748Z,34.56
2018-09-13T14:02:38.925Z,34.67
2018-09-13T14:05:07.649Z,34.75
2018-09-13T14:07:36.580Z,35.39
2018-09-13T14:10:05.390Z,35.25
2018-09-13T14:12:34.105Z,35.79
2018-09-13T14:15:02.808Z,36.43
2018-09-13T14:17:31.505Z,37.05
2018-09-13T14:20:00.225Z,37.45
2018-09-13T14:22:29.066Z,37.95
2018-09-13T14:24:57.883Z,38.13
2018-09-13T14:27:26.621Z,38.23
2018-09-13T14:29:55.486Z,38.26
2018-09-13T14:32:24.242Z,38.20
2018-09-13T14:34:53.042Z,38.09
2018-09-13T14:37:21.726Z,38.20
2018-09-13T14:39:50.485Z,38.78
2018-09-13T14:42:19.173Z,39.01
2018-09-13T14:44:47.926Z,38.83
2018-09-13T14:47:16.869Z,38.87
2018-09-13T14:49:45.543Z,38.82
2018-09-13T14:52:14.419Z,38.88
2018-09-13T14:54:43.175Z,39.20
2018-09-13T14:57:11.949Z,39.10
2018-09-13T14:59:41.447Z,39.21
2018-09-13T15:02:10.162Z,39.36
2018-09-13T15:04:39.155Z,39.50
2018-09-13T15:07:07.956Z,39.54
2018-09-13T15:09:36.700Z,39.48
2018-09-13T15:12:05.470Z,39.77
2018-09-13T15:14:34.226Z,39.85
2018-09-13T15:17:03.057Z,39.90
2018-09-13T15:19:31.810Z,39.94
2018-09-13T15:22:00.625Z,40.24
2018-09-13T15:24:29.574Z,40.20
2018-09-13T15:26:58.236Z,40.14
2018-09-13T15:29:27.060Z,40.39
2018-09-13T15:31:55.861Z,40.47
2018-09-13T15:34:24.569Z,40.35
2018-09-13T15:36:53.413Z,40.38
2018-09-13T15:39:22.114Z,40.16
2018-09-13T15:41:51.554Z,39.86
2018-09-13T15:44:20.451Z,40.02
2018-09-13T15:46:49.308Z,40.02
2018-09-13T15:49:18.480Z,40.12
2018-09-13T15:51:47.463Z,40.18
2018-09-13T15:54:16.191Z,39.65
2018-09-13T15:56:44.984Z,39.07
2018-09-13T15:59:14.958Z,38.75
2018-09-13T16:01:43.872Z,38.31
2018-09-13T16:04:12.675Z,37.79
2018-09-13T16:06:41.695Z,37.45
2018-09-13T16:09:16.379Z,37.22
2018-09-13T16:11:46.916Z,36.77
2018-09-13T16:14:18.921Z,36.41
2018-09-13T16:16:50.306Z,36.15
2018-09-13T16:19:19.366Z,35.74
2018-09-13T16:21:48.350Z,35.17
2018-09-13T16:24:17.175Z,34.76
2018-09-13T16:26:45.927Z,34.66
2018-09-13T16:29:14.991Z,34.72
2018-09-13T16:31:43.812Z,34.80
2018-09-13T16:34:12.791Z,34.66
2018-09-13T16:36:46.915Z,34.56
2018-09-13T16:39:27.074Z,34.32
2018-09-13T16:42:01.307Z,33.92
2018-09-13T16:44:35.152Z,33.51
2018-09-13T16:47:08.942Z,32.91
2018-09-13T16:49:39.446Z,32.32
2018-09-13T16:52:08.221Z,31.60
2018-09-13T16:54:36.924Z,30.93
2018-09-13T16:57:06.264Z,30.28
2018-09-13T16:59:34.961Z,29.77
2018-09-13T17:02:03.702Z,29.23
2018-09-13T17:04:32.317Z,28.75
2018-09-13T17:07:01.030Z,28.35
2018-09-13T17:09:29.714Z,28.00
2018-09-13T17:11:58.381Z,27.68
2018-09-13T17:14:27.032Z,27.39
2018-09-13T17:16:56.364Z,27.09
2018-09-13T17:19:25.058Z,26.81
2018-09-13T17:21:53.792Z,26.56
2018-09-13T17:24:22.454Z,26.33
2018-09-13T17:26:51.173Z,26.09
2018-09-13T17:29:19.824Z,25.87
2018-09-13T17:31:48.536Z,25.69
2018-09-13T17:34:17.201Z,25.54
2018-09-13T17:36:45.971Z,25.42
2018-09-13T17:39:14.656Z,25.29
2018-09-13T17:41:43.773Z,25.16
2018-09-13T17:44:12.506Z,25.04
2018-09-13T17:46:41.754Z,24.92
2018-09-13T17:49:10.393Z,24.81
2018-09-13T17:51:39.053Z,24.71
2018-09-13T17:54:07.757Z,24.65
2018-09-13T17:56:36.564Z,24.59
2018-09-13T17:59:05.304Z,24.57
2018-09-13T18:01:34.083Z,24.53
2018-09-13T18:04:02.901Z,24.46
2018-09-13T18:06:31.650Z,24.44
2018-09-13T18:09:00.343Z,24.39
2018-09-13T18:11:29.135Z,24.30
2018-09-13T18:13:58.091Z,24.23
2018-09-13T18:16:26.761Z,24.18
2018-09-13T18:18:55.471Z,24.14
2018-09-13T18:21:24.201Z,24.15
2018-09-13T18:23:52.922Z,24.10
2018-09-13T18:26:21.690Z,24.03
2018-09-13T18:28:50.443Z,23.94
2018-09-13T18:31:19.211Z,23.87
2018-09-13T18:33:48.038Z,23.83
2018-09-13T18:36:16.818Z,23.82
2018-09-13T18:38:45.647Z,23.79
2018-09-13T18:41:14.420Z,23.79
2018-09-13T18:43:43.164Z,23.78
2018-09-13T18:46:11.936Z,23.76
2018-09-13T18:48:47.243Z,23.66
2018-09-13T18:51:15.958Z,23.63
2018-09-13T18:53:44.732Z,23.59
2018-09-13T18:56:13.530Z,23.60
2018-09-13T18:58:42.378Z,23.54
2018-09-13T19:01:11.121Z,23.53
2018-09-13T19:03:39.897Z,23.50
2018-09-13T19:06:09.310Z,23.48
2018-09-13T19:08:38.176Z,23.46
2018-09-13T19:11:07.000Z,23.43
2018-09-13T19:13:35.692Z,23.36
2018-09-13T19:16:04.475Z,23.31
2018-09-13T19:18:33.219Z,23.26
2018-09-13T19:21:02.016Z,23.30
2018-09-13T19:23:30.747Z,23.26
2018-09-13T19:25:59.624Z,23.19
2018-09-13T19:28:28.462Z,23.19
2018-09-13T19:30:57.243Z,23.14
2018-09-13T19:33:26.013Z,23.13
2018-09-13T19:35:54.880Z,23.05
2018-09-13T19:38:24.684Z,23.05
2018-09-13T19:40:53.597Z,22.98
2018-09-13T19:43:22.407Z,22.95
2018-09-13T19:45:51.795Z,22.84
2018-09-13T19:48:20.543Z,22.72
2018-09-13T19:50:49.400Z,22.64
2018-09-13T19:53:18.127Z,22.59
2018-09-13T19:55:47.300Z,22.55
2018-09-13T19:58:16.047Z,22.49
2018-09-13T20:00:44.808Z,22.45
2018-09-13T20:03:13.597Z,22.38
2018-09-13T20:05:42.383Z,22.34
2018-09-13T20:08:11.134Z,22.36
2018-09-13T20:10:39.820Z,22.35
2018-09-13T20:13:08.701Z,22.33
2018-09-13T20:15:37.420Z,22.32
2018-09-13T20:18:06.303Z,22.31
2018-09-13T20:20:35.049Z,22.33
2018-09-13T20:23:05.091Z,22.34
2018-09-13T20:25:33.794Z,22.35
2018-09-13T20:28:02.569Z,22.33
2018-09-13T20:30:31.256Z,22.30
2018-09-13T20:32:59.988Z,22.26
2018-09-13T20:35:28.751Z,22.22
2018-09-13T20:37:57.540Z,22.14
2018-09-13T20:40:26.286Z,22.09
2018-09-13T20:42:55.050Z,22.06
2018-09-13T20:45:23.865Z,22.02
2018-09-13T20:47:52.597Z,22.00
2018-09-13T20:50:21.282Z,21.99
2018-09-13T20:52:50.081Z,22.01
2018-09-13T20:55:18.842Z,22.00
2018-09-13T20:57:47.526Z,22.01
2018-09-13T21:00:19.775Z,22.01
2018-09-13T21:02:49.722Z,22.02
2018-09-13T21:05:19.140Z,22.02
2018-09-13T21:07:47.833Z,22.00
2018-09-13T21:10:16.539Z,21.98
2018-09-13T21:12:45.311Z,21.96
2018-09-13T21:15:14.078Z,21.96
2018-09-13T21:17:42.810Z,21.96
2018-09-13T21:20:11.564Z,21.94
2018-09-13T21:22:40.311Z,21.97
2018-09-13T21:25:09.010Z,21.98
2018-09-13T21:27:37.703Z,22.00
2018-09-13T21:30:06.484Z,22.01
2018-09-13T21:32:35.195Z,22.01
2018-09-13T21:35:03.921Z,21.99
2018-09-13T21:37:32.709Z,22.03
2018-09-13T21:40:01.434Z,21.96
2018-09-13T21:42:30.175Z,21.96
2018-09-13T21:44:59.324Z,21.91
2018-09-13T21:47:28.021Z,21.88
2018-09-13T21:49:59.582Z,21.93
2018-09-13T21:52:28.313Z,21.99
2018-09-13T21:54:57.057Z,22.12
2018-09-13T21:57:25.784Z,22.15
2018-09-13T21:59:54.822Z,22.17
2018-09-13T22:02:23.577Z,22.16
2018-09-13T22:04:52.373Z,22.17
2018-09-13T22:07:21.102Z,22.26
2018-09-13T22:09:49.873Z,22.22
2018-09-13T22:12:18.628Z,22.23
2018-09-13T22:14:47.366Z,22.18
2018-09-13T22:17:16.061Z,22.15
2018-09-13T22:19:44.802Z,22.13
2018-09-13T22:22:13.540Z,22.08
2018-09-13T22:24:42.267Z,22.13
2018-09-13T22:27:10.943Z,22.06
2018-09-13T22:29:39.682Z,21.94
2018-09-13T22:32:08.456Z,21.92
2018-09-13T22:34:37.140Z,21.91
2018-09-13T22:37:06.081Z,21.92
2018-09-13T22:39:34.814Z,21.79
2018-09-13T22:42:03.521Z,21.62
2018-09-13T22:44:37.353Z,21.50
2018-09-13T22:47:06.097Z,21.36
2018-09-13T22:49:34.865Z,21.24
2018-09-13T22:52:03.606Z,21.14
2018-09-13T22:54:32.646Z,21.09
2018-09-13T22:57:01.322Z,21.18
2018-09-13T22:59:30.136Z,21.31
2018-09-13T23:01:58.865Z,21.38
2018-09-13T23:04:27.547Z,21.47
2018-09-13T23:06:56.328Z,21.53
2018-09-13T23:09:25.065Z,21.51
2018-09-13T23:11:53.831Z,21.62
2018-09-13T23:14:23.162Z,21.63
2018-09-13T23:16:51.979Z,21.63
2018-09-13T23:19:20.771Z,21.55
2018-09-13T23:21:49.522Z,21.53
2018-09-13T23:24:18.220Z,21.52
2018-09-13T23:26:46.899Z,21.50
2018-09-13T23:29:15.591Z,21.37
2018-09-13T23:31:44.321Z,21.36
2018-09-13T23:34:12.982Z,21.41
2018-09-13T23:36:41.739Z,21.42
2018-09-13T23:39:17.065Z,21.38
2018-09-13T23:41:45.651Z,21.33
2018-09-13T23:44:14.357Z,21.45
2018-09-13T23:46:43.013Z,21.45
2018-09-13T23:49:11.687Z,21.23
2018-09-13T23:51:40.439Z,21.22
2018-09-13T23:54:09.155Z,21.17
2018-09-13T23:56:37.829Z,21.10
2018-09-13T23:59:06.569Z,21.16
